Time;durP1;ratioP1;P1;durP2;ratioP2;P2;SDS_P1;SDS_P2;PMS_P1;PMS_P2;Temp;Humidity;BMP_temperature;BMP_pressure;BME280_temperature;BME280_humidity;BME280_pressure;Samples;Min_cycle;Max_cycle;Signal;HPM_P1;HPM_P2
2023/08/08 00:01:44;;;;;;;5.37;1.80;;;12.40;99.90;;;;;;4963994;28;20206;-68
2023/08/08 00:04:12;;;;;;;5.93;2.17;;;12.40;99.90;;;;;;4948489;28;20205;-66
2023/08/08 00:06:39;;;;;;;5.10;2.20;;;12.40;99.90;;;;;;4963219;28;20979;-68
2023/08/08 00:09:06;;;;;;;3.93;2.27;;;12.40;99.90;;;;;;4954486;28;20284;-67
2023/08/08 00:11:33;;;;;;;5.67;1.87;;;12.40;99.90;;;;;;4961671;28;20277;-68
2023/08/08 00:14:00;;;;;;;9.23;2.07;;;12.40;99.90;;;;;;4954463;28;20905;-68
2023/08/08 00:16:27;;;;;;;10.30;2.63;;;12.40;99.90;;;;;;4965301;28;20804;-67
2023/08/08 00:18:55;;;;;;;8.03;1.90;;;12.40;99.90;;;;;;4953515;28;20265;-68
2023/08/08 00:21:22;;;;;;;6.60;2.20;;;12.40;99.90;;;;;;4963190;28;20197;-66
2023/08/08 00:23:49;;;;;;;5.07;1.93;;;12.40;99.90;;;;;;4964303;28;20209;-68
2023/08/08 00:26:16;;;;;;;3.13;1.77;;;12.40;99.90;;;;;;4960854;28;20244;-67
2023/08/08 00:28:42;;;;;;;8.00;2.60;;;12.40;99.90;;;;;;4966697;28;20234;-68
2023/08/08 00:31:09;;;;;;;4.97;1.80;;;12.40;99.90;;;;;;4970283;28;20610;-66
2023/08/08 00:33:38;;;;;;;5.40;2.20;;;12.40;99.90;;;;;;4929516;28;20217;-69
2023/08/08 00:36:07;;;;;;;4.13;1.47;;;12.40;99.90;;;;;;4949639;28;20310;-66
2023/08/08 00:38:34;;;;;;;5.53;2.13;;;12.40;99.90;;;;;;4963761;28;20244;-69
2023/08/08 00:41:01;;;;;;;3.27;2.10;;;12.40;99.90;;;;;;4945569;28;20721;-68
2023/08/08 00:43:28;;;;;;;5.13;1.63;;;12.40;99.90;;;;;;4965480;28;20409;-68
2023/08/08 00:45:55;;;;;;;3.70;1.87;;;12.40;99.90;;;;;;4963787;28;20226;-68
2023/08/08 00:48:22;;;;;;;4.60;1.93;;;12.40;99.90;;;;;;4970174;28;20220;-67
2023/08/08 00:50:50;;;;;;;3.70;2.47;;;12.40;99.90;;;;;;4948073;28;20213;-69
2023/08/08 00:53:20;;;;;;;2.53;1.60;;;12.40;99.90;;;;;;4967002;28;20194;-67
2023/08/08 00:55:47;;;;;;;4.67;1.53;;;12.40;99.90;;;;;;4952179;28;20698;-69
2023/08/08 00:58:16;;;;;;;3.73;1.70;;;12.40;99.90;;;;;;4952243;28;20221;-68
2023/08/08 01:00:43;;;;;;;6.10;2.70;;;12.50;99.90;;;;;;4956796;28;20220;-69
2023/08/08 01:03:10;;;;;;;2.87;1.70;;;12.50;99.90;;;;;;4962986;28;20212;-67
2023/08/08 01:05:42;;;;;;;5.07;1.80;;;12.50;99.90;;;;;;4953685;28;21425;-69
2023/08/08 01:08:09;;;;;;;4.93;1.97;;;12.50;99.90;;;;;;4960852;28;20220;-67
2023/08/08 01:10:40;;;;;;;2.37;1.53;;;12.50;99.90;;;;;;4961730;28;20197;-69
2023/08/08 01:13:14;;;;;;;5.83;1.90;;;12.50;99.90;;;;;;4956293;28;20202;-67
2023/08/08 01:15:41;;;;;;;2.90;1.63;;;12.50;99.90;;;;;;4962116;28;20216;-69
2023/08/08 01:18:10;;;;;;;4.67;1.67;;;12.50;99.90;;;;;;4953673;28;20202;-67
2023/08/08 01:20:39;;;;;;;3.07;1.27;;;12.50;99.90;;;;;;4962185;28;20960;-69
2023/08/08 01:23:13;;;;;;;2.40;1.60;;;12.50;99.90;;;;;;4937483;28;20261;-67
2023/08/08 01:25:42;;;;;;;4.50;1.90;;;12.50;99.90;;;;;;4959621;28;20220;-68
2023/08/08 01:28:09;;;;;;;2.97;1.40;;;12.50;99.90;;;;;;4943474;28;20201;-66
2023/08/08 01:30:36;;;;;;;5.20;1.80;;;12.50;99.90;;;;;;4969242;28;20292;-68
2023/08/08 01:33:04;;;;;;;2.13;1.23;;;12.40;99.90;;;;;;4953467;28;20214;-68
2023/08/08 01:35:40;;;;;;;4.30;1.70;;;12.50;99.90;;;;;;4970745;28;20897;-69
2023/08/08 01:38:12;;;;;;;7.27;1.50;;;12.50;99.90;;;;;;4942647;28;20620;-68
2023/08/08 01:40:43;;;;;;;4.93;1.30;;;12.50;99.90;;;;;;4950637;28;20894;-68
2023/08/08 01:43:10;;;;;;;2.57;1.30;;;12.50;99.90;;;;;;4965786;28;20236;-67
2023/08/08 01:45:39;;;;;;;4.53;1.60;;;12.50;99.90;;;;;;4970145;28;20248;-70
2023/08/08 01:48:10;;;;;;;2.97;1.47;;;12.50;99.90;;;;;;4952121;28;20288;-66
2023/08/08 01:50:37;;;;;;;3.60;1.60;;;12.50;99.90;;;;;;4965734;28;20217;-69
2023/08/08 01:53:04;;;;;;;6.40;1.47;;;12.50;99.90;;;;;;4955587;28;20206;-67
2023/08/08 01:55:31;;;;;;;3.40;1.40;;;12.50;99.90;;;;;;4963592;28;20280;-69
2023/08/08 01:57:59;;;;;;;4.93;1.70;;;12.50;99.90;;;;;;4967076;28;20202;-69
2023/08/08 02:00:27;;;;;;;4.10;1.77;;;12.50;99.90;;;;;;4958445;28;20386;-69
2023/08/08 02:02:53;;;;;;;5.70;1.70;;;12.50;99.90;;;;;;4966831;28;20285;-69
2023/08/08 02:05:21;;;;;;;3.67;1.77;;;12.50;99.90;;;;;;4968063;28;20220;-68
2023/08/08 02:07:48;;;;;;;4.30;1.90;;;12.50;99.90;;;;;;4955655;28;20194;-70
2023/08/08 02:10:15;;;;;;;4.33;1.87;;;12.50;99.90;;;;;;4943312;28;20202;-68
2023/08/08 02:12:42;;;;;;;4.23;1.80;;;12.50;99.90;;;;;;4970311;28;20944;-69
2023/08/08 02:15:12;;;;;;;9.97;3.03;;;12.50;99.90;;;;;;4950108;28;20222;-67
2023/08/08 02:17:39;;;;;;;6.73;1.80;;;12.50;99.90;;;;;;4959119;28;20202;-70
2023/08/08 02:20:07;;;;;;;7.37;1.90;;;12.60;99.90;;;;;;4969609;28;20198;-69
2023/08/08 02:22:34;;;;;;;2.23;1.60;;;12.60;99.90;;;;;;4964300;28;20209;-70
2023/08/08 02:25:01;;;;;;;7.83;1.83;;;12.50;99.90;;;;;;4959247;28;20304;-69
2023/08/08 02:27:28;;;;;;;4.27;1.27;;;12.50;99.90;;;;;;4969654;28;20907;-70
2023/08/08 02:29:55;;;;;;;5.20;1.57;;;12.50;99.90;;;;;;4970757;28;20222;-69
2023/08/08 02:32:23;;;;;;;4.37;1.40;;;12.50;99.90;;;;;;4966858;28;20194;-67
2023/08/08 02:34:50;;;;;;;6.67;1.30;;;12.50;99.90;;;;;;4958027;28;20230;-69
2023/08/08 02:37:17;;;;;;;3.40;1.50;;;12.50;99.90;;;;;;4946831;28;20202;-68
2023/08/08 02:39:45;;;;;;;6.30;1.43;;;12.50;99.90;;;;;;4966205;28;20237;-69
2023/08/08 02:42:12;;;;;;;3.47;1.33;;;12.50;99.90;;;;;;4934993;28;20221;-68
2023/08/08 02:44:38;;;;;;;3.57;1.20;;;12.50;99.90;;;;;;4960909;28;20237;-69
2023/08/08 02:47:06;;;;;;;3.97;1.23;;;12.50;99.90;;;;;;4965105;28;20191;-67
2023/08/08 02:49:34;;;;;;;3.63;1.40;;;12.50;99.90;;;;;;4966124;28;20372;-70
2023/08/08 02:52:01;;;;;;;4.20;1.43;;;12.40;99.90;;;;;;4974359;28;20198;-70
2023/08/08 02:54:32;;;;;;;4.23;1.20;;;12.40;99.90;;;;;;4955890;28;20478;-69
2023/08/08 02:56:58;;;;;;;1.97;1.30;;;12.40;99.90;;;;;;4939458;28;20218;-70
2023/08/08 02:59:25;;;;;;;2.37;1.20;;;12.40;99.90;;;;;;4965215;28;20182;-70
2023/08/08 03:01:53;;;;;;;3.10;1.17;;;12.40;99.90;;;;;;4945885;28;20358;-70
2023/08/08 03:04:20;;;;;;;3.07;1.20;;;12.40;99.90;;;;;;4970557;28;20205;-67
2023/08/08 03:06:48;;;;;;;4.77;1.50;;;12.50;99.90;;;;;;4949837;28;20284;-70
2023/08/08 03:09:15;;;;;;;1.50;0.90;;;12.40;99.90;;;;;;4950519;28;20903;-67
2023/08/08 03:11:43;;;;;;;1.60;1.47;;;12.40;99.90;;;;;;4935149;28;20861;-70
2023/08/08 03:14:14;;;;;;;1.90;1.07;;;12.40;99.90;;;;;;4962822;28;20198;-67
2023/08/08 03:16:40;;;;;;;3.97;1.20;;;12.40;99.90;;;;;;4945916;28;20222;-68
2023/08/08 03:19:09;;;;;;;1.77;1.20;;;12.40;99.90;;;;;;4953920;28;20570;-66
2023/08/08 03:21:38;;;;;;;4.37;1.10;;;12.40;99.90;;;;;;4952122;28;20428;-70
2023/08/08 03:24:06;;;;;;;2.20;0.97;;;12.40;99.90;;;;;;4956457;28;20274;-69
2023/08/08 03:26:33;;;;;;;2.80;1.13;;;12.40;99.90;;;;;;4944963;28;20229;-69
2023/08/08 03:29:00;;;;;;;1.57;1.30;;;12.40;99.90;;;;;;4967175;28;20644;-70
2023/08/08 03:31:37;;;;;;;3.57;1.00;;;12.40;99.90;;;;;;4963524;28;20205;-69
2023/08/08 03:34:05;;;;;;;3.03;1.10;;;12.40;99.90;;;;;;4964555;28;20194;-68
2023/08/08 03:36:33;;;;;;;2.53;1.10;;;12.40;99.90;;;;;;4961693;28;20202;-70
2023/08/08 03:39:00;;;;;;;3.43;1.40;;;12.40;99.90;;;;;;4964358;28;20185;-70
2023/08/08 03:41:28;;;;;;;2.57;1.50;;;12.40;99.90;;;;;;4959874;28;20190;-69
2023/08/08 03:43:56;;;;;;;6.70;1.20;;;12.40;99.90;;;;;;4938405;28;20202;-69
2023/08/08 03:46:24;;;;;;;2.70;1.20;;;12.40;99.90;;;;;;4951200;28;20824;-68
2023/08/08 03:48:52;;;;;;;1.90;1.07;;;12.40;99.90;;;;;;4964682;28;20190;-68
2023/08/08 03:51:18;;;;;;;2.07;1.20;;;12.50;99.90;;;;;;4961775;28;20614;-66
2023/08/08 03:53:46;;;;;;;3.27;0.90;;;12.50;99.90;;;;;;4967482;28;20206;-68
2023/08/08 03:56:13;;;;;;;2.60;1.10;;;12.50;99.90;;;;;;4954299;28;20334;-67
2023/08/08 03:58:41;;;;;;;2.57;1.13;;;12.50;99.90;;;;;;4948739;28;20235;-67
2023/08/08 04:01:08;;;;;;;4.27;1.53;;;12.50;99.90;;;;;;4960257;28;20202;-68
2023/08/08 04:03:35;;;;;;;2.40;1.13;;;12.60;99.90;;;;;;4959243;28;20208;-68
2023/08/08 04:06:02;;;;;;;1.57;1.10;;;12.60;99.90;;;;;;4956925;28;20224;-69
2023/08/08 04:08:29;;;;;;;4.73;1.33;;;12.60;99.90;;;;;;4969353;28;20194;-68
2023/08/08 04:10:56;;;;;;;3.17;1.13;;;12.60;99.90;;;;;;4965118;28;20222;-67
2023/08/08 04:13:23;;;;;;;1.17;0.90;;;12.60;99.90;;;;;;4953736;28;20693;-68
2023/08/08 04:15:51;;;;;;;5.23;1.17;;;12.60;99.90;;;;;;4946280;28;20241;-67
2023/08/08 04:18:18;;;;;;;2.17;1.03;;;12.60;99.90;;;;;;4951097;28;20288;-68
2023/08/08 04:20:46;;;;;;;3.70;1.30;;;12.60;99.90;;;;;;4953853;28;20198;-68
2023/08/08 04:23:13;;;;;;;3.33;1.00;;;12.70;99.90;;;;;;4960167;28;20280;-67
2023/08/08 04:25:40;;;;;;;1.50;1.00;;;12.70;99.90;;;;;;4956890;28;20225;-67
2023/08/08 04:28:07;;;;;;;3.90;1.60;;;12.70;99.90;;;;;;4964584;28;20198;-68
2023/08/08 04:30:35;;;;;;;2.43;0.97;;;12.70;99.90;;;;;;4945902;28;20225;-68
2023/08/08 04:33:04;;;;;;;5.33;1.10;;;12.70;99.90;;;;;;4958765;28;20570;-68
2023/08/08 04:35:30;;;;;;;6.03;1.37;;;12.70;99.90;;;;;;4956544;28;20229;-66
2023/08/08 04:37:57;;;;;;;2.80;1.00;;;12.70;99.90;;;;;;4963112;28;20675;-68
2023/08/08 04:40:24;;;;;;;2.00;1.10;;;12.70;99.90;;;;;;4964222;28;20197;-66
2023/08/08 04:42:52;;;;;;;2.27;1.07;;;12.70;99.90;;;;;;4956153;28;20186;-71
2023/08/08 04:45:20;;;;;;;3.23;0.90;;;12.70;99.90;;;;;;4962943;28;20233;-71
2023/08/08 04:47:47;;;;;;;2.90;1.17;;;12.70;99.90;;;;;;4945032;28;20240;-70
2023/08/08 04:50:15;;;;;;;1.37;0.80;;;12.70;99.90;;;;;;4956000;28;20233;-70
2023/08/08 04:52:42;;;;;;;0.67;0.67;;;12.70;99.90;;;;;;4956004;28;21152;-70
2023/08/08 04:55:10;;;;;;;3.60;0.90;;;12.60;99.90;;;;;;4965651;28;20228;-70
2023/08/08 04:57:36;;;;;;;1.43;1.00;;;12.60;99.90;;;;;;4959906;28;20846;-70
2023/08/08 05:00:06;;;;;;;1.50;0.90;;;12.60;99.90;;;;;;4965823;28;20206;-70
2023/08/08 05:02:33;;;;;;;2.20;0.80;;;12.70;99.90;;;;;;4938590;28;20213;-72
2023/08/08 05:05:00;;;;;;;3.13;0.83;;;12.70;99.90;;;;;;4967422;28;20761;-70
2023/08/08 05:07:29;;;;;;;2.33;0.83;;;12.70;99.90;;;;;;4966445;28;20277;-72
2023/08/08 05:09:55;;;;;;;2.20;0.90;;;12.70;99.90;;;;;;4965341;28;20221;-70
2023/08/08 05:12:22;;;;;;;3.33;0.73;;;12.70;99.90;;;;;;4954727;28;20289;-71
2023/08/08 05:14:49;;;;;;;1.93;0.70;;;12.80;99.90;;;;;;4966005;28;20284;-70
2023/08/08 05:17:16;;;;;;;3.60;0.80;;;12.80;99.90;;;;;;4950174;28;20210;-70
2023/08/08 05:19:43;;;;;;;1.70;0.80;;;12.90;99.90;;;;;;4960364;28;20201;-70
2023/08/08 05:22:11;;;;;;;1.60;0.80;;;12.90;99.90;;;;;;4959144;28;20293;-70
2023/08/08 05:24:39;;;;;;;4.97;1.00;;;13.00;99.90;;;;;;4955412;28;20202;-70
2023/08/08 05:27:06;;;;;;;4.10;0.80;;;13.00;99.90;;;;;;4967787;28;20210;-70
2023/08/08 05:29:34;;;;;;;2.60;0.90;;;13.00;99.90;;;;;;4963960;28;20206;-72
2023/08/08 05:32:01;;;;;;;1.63;0.90;;;13.00;99.90;;;;;;4965767;28;20265;-70
2023/08/08 05:34:27;;;;;;;2.13;1.00;;;13.10;99.90;;;;;;4955064;28;20205;-72
2023/08/08 05:36:54;;;;;;;2.03;0.90;;;13.10;99.90;;;;;;4953477;28;20225;-70
2023/08/08 05:39:21;;;;;;;2.47;1.00;;;13.20;99.90;;;;;;4964991;28;20222;-71
2023/08/08 05:41:49;;;;;;;1.80;0.67;;;13.30;99.90;;;;;;4957848;28;20210;-70
2023/08/08 05:44:16;;;;;;;3.23;1.03;;;13.40;99.90;;;;;;4963322;28;20218;-71
2023/08/08 05:46:43;;;;;;;3.70;0.83;;;13.40;99.90;;;;;;4968990;28;20866;-70
2023/08/08 05:49:10;;;;;;;2.60;0.70;;;13.50;99.90;;;;;;4953434;28;20206;-70
2023/08/08 05:51:37;;;;;;;2.43;0.73;;;13.50;99.90;;;;;;4958607;28;20791;-70
2023/08/08 05:54:04;;;;;;;0.97;0.80;;;13.50;99.90;;;;;;4962522;28;20326;-69
2023/08/08 05:56:36;;;;;;;4.83;1.10;;;13.50;99.90;;;;;;4966845;28;20230;-72
2023/08/08 05:59:05;;;;;;;5.10;0.83;;;13.60;99.90;;;;;;4968039;28;20289;-70
2023/08/08 06:01:32;;;;;;;1.63;0.90;;;13.60;99.90;;;;;;4965285;28;20186;-70
2023/08/08 06:03:59;;;;;;;3.83;0.80;;;13.70;99.90;;;;;;4974363;28;20205;-70
2023/08/08 06:06:26;;;;;;;2.77;0.80;;;13.80;99.90;;;;;;4946937;28;20225;-71
2023/08/08 06:08:53;;;;;;;2.93;0.97;;;13.90;99.90;;;;;;4968243;28;20205;-70
2023/08/08 06:11:21;;;;;;;1.03;0.73;;;13.90;99.90;;;;;;4970574;28;20897;-72
2023/08/08 06:13:48;;;;;;;2.47;0.90;;;13.90;99.90;;;;;;4954805;28;20211;-70
2023/08/08 06:16:18;;;;;;;3.07;0.90;;;14.00;99.90;;;;;;4970184;28;20305;-70
2023/08/08 06:18:45;;;;;;;2.00;0.87;;;14.10;99.90;;;;;;4963883;28;20430;-69
2023/08/08 06:21:12;;;;;;;2.77;0.93;;;14.20;99.90;;;;;;4947813;28;20265;-69
2023/08/08 06:23:39;;;;;;;1.70;0.80;;;14.20;99.90;;;;;;4956019;28;20259;-70
2023/08/08 06:26:06;;;;;;;1.83;0.80;;;14.20;99.90;;;;;;4972758;28;20289;-68
2023/08/08 06:28:33;;;;;;;5.30;1.20;;;14.20;99.90;;;;;;4962746;28;20225;-69
2023/08/08 06:31:00;;;;;;;1.60;1.00;;;14.30;99.90;;;;;;4959514;28;20221;-70
2023/08/08 06:33:28;;;;;;;2.53;1.00;;;14.30;99.90;;;;;;4965124;28;20603;-70
2023/08/08 06:35:56;;;;;;;1.63;0.83;;;14.30;99.90;;;;;;4959183;28;20230;-70
2023/08/08 06:38:22;;;;;;;3.67;1.00;;;14.40;99.90;;;;;;4948901;28;20205;-70
2023/08/08 06:40:50;;;;;;;3.80;1.20;;;14.40;99.90;;;;;;4951992;28;20210;-70
2023/08/08 06:43:17;;;;;;;3.10;1.10;;;14.50;99.90;;;;;;4957751;28;20277;-70
2023/08/08 06:45:44;;;;;;;1.70;1.17;;;14.50;99.90;;;;;;4962246;28;21603;-69
2023/08/08 06:48:10;;;;;;;2.03;1.10;;;14.60;99.90;;;;;;4966823;28;20208;-71
2023/08/08 06:50:39;;;;;;;3.33;1.10;;;14.70;99.90;;;;;;4968857;28;20828;-69
2023/08/08 06:53:06;;;;;;;4.83;1.07;;;14.70;99.90;;;;;;4947481;28;20217;-70
2023/08/08 06:55:32;;;;;;;6.43;1.40;;;14.80;99.90;;;;;;4957424;28;20368;-70
2023/08/08 06:57:59;;;;;;;3.03;1.10;;;14.70;99.90;;;;;;4965906;28;20210;-69
2023/08/08 07:00:27;;;;;;;2.87;1.00;;;14.80;99.90;;;;;;4969710;28;20253;-70
2023/08/08 07:02:54;;;;;;;4.23;1.20;;;14.80;99.90;;;;;;4961534;28;20210;-70
2023/08/08 07:05:22;;;;;;;3.00;0.97;;;14.90;99.90;;;;;;4962034;28;21555;-70
2023/08/08 07:07:51;;;;;;;4.93;1.60;;;15.00;99.90;;;;;;4949229;28;20679;-70
2023/08/08 07:10:18;;;;;;;4.13;1.40;;;15.10;99.90;;;;;;4956753;28;20218;-70
2023/08/08 07:12:45;;;;;;;2.50;0.93;;;15.10;99.90;;;;;;4971262;28;20217;-70
2023/08/08 07:15:12;;;;;;;4.17;1.53;;;15.20;99.90;;;;;;4960773;28;20376;-70
2023/08/08 07:17:39;;;;;;;2.60;1.53;;;15.30;99.90;;;;;;4958818;28;20198;-70
2023/08/08 07:20:08;;;;;;;2.57;1.17;;;15.30;99.90;;;;;;4964524;28;20202;-70
2023/08/08 07:22:35;;;;;;;3.57;1.10;;;15.30;99.90;;;;;;4955704;28;20186;-70
2023/08/08 07:25:04;;;;;;;4.23;1.33;;;15.40;99.90;;;;;;4951516;28;20218;-70
2023/08/08 07:27:31;;;;;;;2.03;1.20;;;15.40;99.90;;;;;;4957207;28;20209;-70
2023/08/08 07:29:58;;;;;;;1.93;0.80;;;15.50;99.90;;;;;;4970351;28;20201;-70
2023/08/08 07:32:25;;;;;;;3.70;1.00;;;15.50;99.90;;;;;;4963387;28;20194;-70
2023/08/08 07:34:52;;;;;;;2.83;1.00;;;15.50;99.90;;;;;;4970198;28;20225;-69
2023/08/08 07:37:19;;;;;;;0.60;0.60;;;15.60;99.90;;;;;;4971744;28;20264;-70
2023/08/08 07:39:46;;;;;;;2.37;0.80;;;15.60;99.90;;;;;;4950598;28;20206;-70
2023/08/08 07:42:14;;;;;;;1.00;0.70;;;15.70;99.90;;;;;;4963417;28;20198;-70
2023/08/08 07:44:41;;;;;;;0.83;0.80;;;15.80;99.90;;;;;;4960728;28;20249;-70
2023/08/08 07:47:08;;;;;;;2.63;1.00;;;15.80;99.90;;;;;;4964187;28;20245;-72
2023/08/08 07:49:35;;;;;;;1.83;0.90;;;15.90;99.90;;;;;;4957274;28;20218;-70
2023/08/08 07:52:02;;;;;;;1.97;0.73;;;15.90;99.90;;;;;;4966591;28;20245;-70
2023/08/08 07:54:29;;;;;;;3.90;1.00;;;15.90;99.90;;;;;;4946120;28;21094;-69
2023/08/08 07:56:56;;;;;;;3.00;1.10;;;16.00;99.90;;;;;;4964671;28;20234;-69
2023/08/08 07:59:24;;;;;;;2.77;0.83;;;16.10;99.90;;;;;;4966645;28;20197;-70
2023/08/08 08:01:51;;;;;;;1.27;1.00;;;16.30;99.90;;;;;;4964204;28;20202;-70
2023/08/08 08:04:17;;;;;;;2.77;1.20;;;16.30;99.90;;;;;;4957632;28;20210;-73
2023/08/08 08:06:45;;;;;;;2.53;0.90;;;16.40;99.90;;;;;;4967715;28;20742;-69
2023/08/08 08:09:11;;;;;;;10.53;1.60;;;16.30;99.90;;;;;;4960327;28;20208;-72
2023/08/08 08:11:38;;;;;;;32.50;4.13;;;16.20;99.90;;;;;;4957666;28;20210;-70
2023/08/08 08:14:05;;;;;;;2.70;1.23;;;16.20;99.90;;;;;;4965618;28;20190;-70
2023/08/08 08:16:33;;;;;;;4.13;1.40;;;16.30;99.90;;;;;;4953137;28;20542;-70
2023/08/08 08:19:00;;;;;;;11.70;2.20;;;16.30;99.90;;;;;;4946350;28;20213;-71
2023/08/08 08:21:27;;;;;;;5.83;1.27;;;16.20;99.90;;;;;;4962513;28;20189;-70
2023/08/08 08:23:54;;;;;;;3.03;1.50;;;16.10;99.90;;;;;;4966080;28;20209;-71
2023/08/08 08:26:21;;;;;;;6.60;1.77;;;15.90;99.90;;;;;;4946584;28;20720;-73
2023/08/08 08:28:47;;;;;;;4.20;1.43;;;15.70;99.90;;;;;;4956676;28;20221;-72
2023/08/08 08:31:14;;;;;;;3.03;1.43;;;15.60;99.90;;;;;;4960347;28;20214;-71
2023/08/08 08:33:43;;;;;;;2.63;1.70;;;15.50;99.90;;;;;;4962063;28;20201;-71
2023/08/08 08:36:10;;;;;;;1.80;0.90;;;15.50;99.90;;;;;;4956950;28;20221;-73
2023/08/08 08:38:36;;;;;;;6.00;1.00;;;15.40;99.90;;;;;;4954644;28;20213;-72
2023/08/08 08:41:04;;;;;;;4.00;1.10;;;15.20;99.90;;;;;;4963074;28;20202;-71
2023/08/08 08:43:31;;;;;;;3.30;1.00;;;14.90;99.90;;;;;;4937576;28;20198;-71
2023/08/08 08:46:02;;;;;;;4.17;1.07;;;14.70;99.90;;;;;;4965861;28;20293;-72
2023/08/08 08:48:29;;;;;;;4.57;1.00;;;14.50;99.90;;;;;;4953135;28;21051;-71
2023/08/08 08:50:57;;;;;;;4.33;1.37;;;14.40;99.90;;;;;;4963943;28;20218;-71
2023/08/08 08:53:24;;;;;;;3.03;0.80;;;14.40;99.90;;;;;;4963911;28;20190;-72
2023/08/08 08:55:53;;;;;;;2.43;0.83;;;14.30;99.90;;;;;;4961735;28;20225;-73
2023/08/08 08:58:21;;;;;;;3.70;0.90;;;14.30;99.90;;;;;;4953218;28;20198;-72
2023/08/08 09:00:49;;;;;;;1.50;0.93;;;14.20;99.90;;;;;;4958442;28;20218;-73
2023/08/08 09:03:16;;;;;;;8.47;1.60;;;14.20;99.90;;;;;;4954923;28;20205;-73
2023/08/08 09:05:44;;;;;;;3.90;1.10;;;14.20;99.90;;;;;;4970208;28;20225;-72
2023/08/08 09:08:13;;;;;;;2.67;0.87;;;14.20;99.90;;;;;;4981771;28;20193;-73
2023/08/08 09:10:40;;;;;;;2.40;0.90;;;14.20;99.90;;;;;;4958586;28;20942;-72
2023/08/08 09:13:07;;;;;;;2.63;1.23;;;14.20;99.90;;;;;;4947132;28;20221;-73
2023/08/08 09:15:37;;;;;;;1.40;0.80;;;14.30;99.90;;;;;;4941859;28;21788;-73
2023/08/08 09:18:04;;;;;;;1.50;0.70;;;14.40;99.90;;;;;;4964289;28;20205;-74
2023/08/08 09:20:31;;;;;;;3.60;1.00;;;14.40;99.90;;;;;;4944516;28;20202;-72
2023/08/08 09:22:58;;;;;;;1.50;0.70;;;14.40;99.90;;;;;;4958321;28;20253;-72
2023/08/08 09:25:27;;;;;;;2.00;1.10;;;14.50;99.90;;;;;;4961494;28;20229;-72
2023/08/08 09:27:54;;;;;;;1.60;0.90;;;14.70;99.90;;;;;;4958192;28;20260;-72
2023/08/08 09:30:22;;;;;;;2.23;0.77;;;14.80;99.90;;;;;;4941874;28;20355;-71
2023/08/08 09:32:49;;;;;;;1.33;0.90;;;15.00;99.90;;;;;;4959077;28;20321;-71
2023/08/08 09:35:16;;;;;;;1.83;1.07;;;15.10;99.90;;;;;;4955340;28;20729;-73
2023/08/08 09:37:44;;;;;;;0.60;0.60;;;15.20;99.90;;;;;;4962788;28;20600;-71
2023/08/08 09:40:12;;;;;;;3.47;0.70;;;15.20;99.90;;;;;;4966831;28;20619;-72
2023/08/08 09:42:41;;;;;;;2.67;1.00;;;15.30;99.90;;;;;;4971943;28;20205;-70
2023/08/08 09:45:10;;;;;;;0.93;0.50;;;15.20;99.90;;;;;;4956154;28;20222;-72
2023/08/08 09:47:38;;;;;;;1.83;0.73;;;15.10;99.90;;;;;;4962061;28;20284;-72
2023/08/08 09:50:06;;;;;;;1.63;0.63;;;15.00;99.90;;;;;;4955582;28;20265;-73
2023/08/08 09:52:35;;;;;;;2.50;0.70;;;14.90;99.90;;;;;;4965507;28;20233;-72
2023/08/08 09:55:03;;;;;;;1.33;0.70;;;14.80;99.90;;;;;;4960104;28;20232;-71
2023/08/08 09:57:31;;;;;;;2.10;0.90;;;14.70;99.90;;;;;;4959024;28;20293;-73
2023/08/08 09:59:59;;;;;;;2.43;0.70;;;14.70;99.90;;;;;;4967254;28;20246;-71
2023/08/08 10:02:26;;;;;;;3.90;0.67;;;14.70;99.90;;;;;;4946554;28;20209;-70
2023/08/08 10:04:54;;;;;;;2.17;0.60;;;14.70;99.90;;;;;;4961808;28;20226;-71
2023/08/08 10:07:21;;;;;;;1.23;0.50;;;14.70;99.90;;;;;;4968154;28;20771;-71
2023/08/08 10:09:49;;;;;;;2.20;0.73;;;14.80;99.90;;;;;;4963244;28;20198;-70
2023/08/08 10:12:17;;;;;;;1.87;0.70;;;14.90;99.90;;;;;;4948954;28;20226;-72
2023/08/08 10:14:46;;;;;;;2.07;0.90;;;14.90;99.90;;;;;;4966745;28;20218;-71
2023/08/08 10:17:16;;;;;;;2.43;0.63;;;15.00;99.90;;;;;;4947691;28;20586;-73
2023/08/08 10:19:52;;;;;;;2.00;0.77;;;15.00;99.90;;;;;;4971063;28;20212;-71
2023/08/08 10:22:23;;;;;;;1.93;1.20;;;15.00;99.90;;;;;;4957087;28;20197;-71
2023/08/08 10:24:52;;;;;;;1.13;0.47;;;14.90;99.90;;;;;;4965276;28;20317;-71
2023/08/08 10:27:29;;;;;;;0.80;0.60;;;14.80;99.90;;;;;;4959401;28;20202;-71
2023/08/08 10:30:03;;;;;;;4.17;1.20;;;14.80;99.90;;;;;;4967780;28;20202;-71
2023/08/08 10:32:40;;;;;;;3.30;1.17;;;15.00;99.90;;;;;;4954630;28;20313;-71
2023/08/08 10:35:08;;;;;;;2.50;0.70;;;15.10;99.90;;;;;;4959474;28;20421;-73
2023/08/08 10:37:36;;;;;;;1.10;0.80;;;15.30;99.90;;;;;;4965706;28;20202;-71
2023/08/08 10:40:06;;;;;;;2.63;0.67;;;15.40;99.90;;;;;;4962157;28;20260;-72
2023/08/08 10:42:34;;;;;;;3.00;1.23;;;15.70;99.90;;;;;;4962744;28;21163;-70
2023/08/08 10:45:02;;;;;;;1.30;0.67;;;15.90;99.90;;;;;;4972316;28;20229;-71
2023/08/08 10:47:35;;;;;;;1.40;0.80;;;16.00;99.90;;;;;;4950591;28;20289;-70
2023/08/08 10:50:06;;;;;;;2.77;1.20;;;15.80;99.90;;;;;;4961960;28;20689;-70
2023/08/08 10:52:35;;;;;;;1.60;0.67;;;15.60;99.90;;;;;;4944631;28;20330;-70
2023/08/08 10:55:03;;;;;;;1.90;0.87;;;15.40;99.90;;;;;;4967682;28;20218;-70
2023/08/08 10:57:31;;;;;;;3.53;1.23;;;15.30;99.90;;;;;;4961077;28;20897;-70
2023/08/08 11:00:17;;;;;;;3.50;1.07;;;15.00;99.90;;;;;;4965375;28;20748;-71
2023/08/08 11:02:46;;;;;;;2.07;0.83;;;14.90;99.90;;;;;;4949886;28;20213;-70
2023/08/08 11:05:15;;;;;;;1.13;0.50;;;14.70;99.90;;;;;;4960246;28;20233;-70
2023/08/08 11:07:43;;;;;;;1.60;0.70;;;14.60;99.90;;;;;;4958401;28;20198;-71
2023/08/08 11:10:11;;;;;;;1.83;0.60;;;14.60;99.90;;;;;;4958299;28;20236;-70
2023/08/08 11:12:37;;;;;;;0.63;0.57;;;14.80;99.90;;;;;;4958691;28;20617;-71
2023/08/08 11:15:05;;;;;;;1.63;0.50;;;14.90;99.90;;;;;;4948432;28;20283;-72
2023/08/08 11:17:33;;;;;;;2.97;0.70;;;15.10;99.90;;;;;;4952676;28;20284;-71
2023/08/08 11:20:01;;;;;;;2.57;0.73;;;15.10;99.90;;;;;;4962160;28;20269;-70
2023/08/08 11:22:28;;;;;;;1.93;0.70;;;15.20;99.90;;;;;;4960269;28;20209;-69
2023/08/08 11:24:57;;;;;;;1.77;0.60;;;15.20;99.90;;;;;;4970690;28;20320;-70
2023/08/08 11:27:25;;;;;;;2.07;1.10;;;15.40;99.90;;;;;;4964375;28;20210;-70
2023/08/08 11:29:52;;;;;;;2.50;1.00;;;15.50;99.90;;;;;;4968992;28;21688;-70
2023/08/08 11:32:19;;;;;;;0.70;0.70;;;15.50;99.90;;;;;;4960383;28;20623;-69
2023/08/08 11:34:47;;;;;;;1.80;0.97;;;15.40;99.90;;;;;;4960963;28;20372;-70
2023/08/08 11:37:15;;;;;;;2.53;0.73;;;15.40;99.90;;;;;;4966977;28;20193;-70
2023/08/08 11:39:43;;;;;;;3.00;0.80;;;15.40;99.90;;;;;;4954091;28;20214;-70
2023/08/08 11:42:10;;;;;;;2.10;0.70;;;15.40;99.90;;;;;;4966804;28;20714;-69
2023/08/08 11:44:38;;;;;;;2.80;0.93;;;15.60;99.90;;;;;;4962290;28;20198;-70
2023/08/08 11:47:05;;;;;;;2.30;1.00;;;15.70;99.90;;;;;;4947999;28;20197;-69
2023/08/08 11:49:39;;;;;;;1.30;0.80;;;15.80;99.90;;;;;;4929980;28;20670;-71
2023/08/08 11:52:07;;;;;;;2.00;0.70;;;15.80;99.90;;;;;;4954239;28;20222;-69
2023/08/08 11:54:37;;;;;;;4.20;0.60;;;15.80;99.90;;;;;;4948659;28;20206;-69
2023/08/08 11:57:04;;;;;;;2.60;0.57;;;15.80;99.90;;;;;;4971193;28;20248;-70
2023/08/08 11:59:32;;;;;;;4.17;1.07;;;16.00;99.90;;;;;;4957965;28;20198;-70
2023/08/08 12:01:59;;;;;;;3.60;1.00;;;16.00;99.90;;;;;;4958061;28;20238;-69
2023/08/08 12:04:26;;;;;;;5.80;1.07;;;16.20;99.90;;;;;;4948479;28;20237;-71
2023/08/08 12:07:03;;;;;;;4.13;1.03;;;16.40;99.90;;;;;;4944909;28;20214;-69
2023/08/08 12:09:32;;;;;;;2.73;0.60;;;16.40;99.90;;;;;;4957969;28;20576;-70
2023/08/08 12:12:02;;;;;;;3.43;0.93;;;16.50;99.90;;;;;;4965386;28;20218;-69
2023/08/08 12:14:29;;;;;;;6.70;1.30;;;16.40;99.90;;;;;;4959857;28;20256;-70
2023/08/08 12:16:57;;;;;;;3.37;1.10;;;16.40;99.90;;;;;;4958255;28;20214;-69
2023/08/08 12:19:25;;;;;;;3.43;0.70;;;16.50;99.90;;;;;;4947760;28;20207;-70
2023/08/08 12:21:52;;;;;;;3.27;1.20;;;16.50;99.90;;;;;;4955146;28;20189;-69
2023/08/08 12:24:19;;;;;;;3.20;0.83;;;16.70;99.90;;;;;;4953727;28;20218;-70
2023/08/08 12:26:46;;;;;;;5.77;1.07;;;16.70;99.90;;;;;;4966088;28;20213;-69
2023/08/08 12:29:15;;;;;;;3.47;0.87;;;16.80;99.90;;;;;;4969224;28;20205;-69
2023/08/08 12:31:42;;;;;;;2.90;1.03;;;16.90;99.90;;;;;;4960418;28;20221;-69
2023/08/08 12:34:09;;;;;;;3.03;0.80;;;17.00;99.90;;;;;;4961643;28;20581;-70
2023/08/08 12:36:36;;;;;;;2.03;1.07;;;17.10;99.90;;;;;;4934510;28;20436;-69
2023/08/08 12:39:04;;;;;;;3.60;1.17;;;17.20;99.90;;;;;;4964731;28;20202;-70
2023/08/08 12:41:31;;;;;;;2.50;1.00;;;17.30;99.90;;;;;;4954938;28;20210;-70
2023/08/08 12:43:58;;;;;;;3.33;1.00;;;17.40;99.90;;;;;;4971680;28;20217;-68
2023/08/08 12:46:26;;;;;;;3.13;0.70;;;17.40;99.90;;;;;;4957516;28;20222;-69
2023/08/08 12:48:53;;;;;;;2.87;0.83;;;17.40;99.90;;;;;;4940558;28;20210;-69